Time;durP1;ratioP1;P1;durP2;ratioP2;P2;SDS_P1;SDS_P2;PMS_P1;PMS_P2;Temp;Humidity;BMP_temperature;BMP_pressure;BME280_temperature;BME280_humidity;BME280_pressure;Samples;Min_cycle;Max_cycle;Signal;HPM_P1;HPM_P2
2022/05/24 00:00:30;;;;;;;26.67;20.70;;;;;;;13.00;100.00;99953.81;5007156;28;20033;-83
2022/05/24 00:02:56;;;;;;;28.98;20.88;;;;;;;12.93;100.00;99946.28;5006723;28;20414;-83
2022/05/24 00:05:24;;;;;;;24.25;20.52;;;;;;;12.98;100.00;99948.59;5009485;28;20100;-83
2022/05/24 00:07:49;;;;;;;27.83;19.80;;;;;;;12.95;100.00;99941.66;5007787;28;20026;-83
2022/05/24 00:10:27;;;;;;;24.30;19.92;;;;;;;12.98;100.00;99937.06;5008227;28;20095;-84
2022/05/24 00:12:53;;;;;;;22.95;18.98;;;;;;;12.92;100.00;99938.41;5008433;28;20026;-83
2022/05/24 00:15:23;;;;;;;26.58;19.73;;;;;;;12.79;100.00;99929.56;5008862;28;20376;-83
2022/05/24 00:18:08;;;;;;;29.42;20.30;;;;;;;12.75;100.00;99947.66;5006506;28;20025;-83
2022/05/24 00:20:37;;;;;;;25.23;18.05;;;;;;;12.63;100.00;99938.75;5006918;28;20029;-83
2022/05/24 00:23:02;;;;;;;22.75;17.70;;;;;;;12.64;100.00;99944.94;5007519;28;20033;-83
2022/05/24 00:25:30;;;;;;;23.33;18.02;;;;;;;12.63;100.00;99951.25;5008884;28;20034;-84
2022/05/24 00:27:55;;;;;;;25.98;17.92;;;;;;;12.57;100.00;99944.50;5006618;28;20339;-83
2022/05/24 00:30:21;;;;;;;26.45;17.73;;;;;;;12.56;100.00;99958.84;5009054;28;20042;-83
2022/05/24 00:32:47;;;;;;;25.58;17.17;;;;;;;12.50;100.00;99943.28;5008371;28;20391;-82
2022/05/24 00:35:13;;;;;;;26.58;17.15;;;;;;;12.39;99.88;99941.38;5006110;28;20018;-83
2022/05/24 00:37:40;;;;;;;23.13;15.88;;;;;;;12.40;99.98;99944.91;5004157;28;20026;-83
2022/05/24 00:40:08;;;;;;;25.08;15.52;;;;;;;12.34;100.00;99942.69;5009107;28;20464;-83
2022/05/24 00:42:33;;;;;;;23.60;15.63;;;;;;;12.34;99.08;99946.22;5009022;28;20033;-83
2022/05/24 00:45:34;;;;;;;24.30;14.63;;;;;;;12.32;99.83;99936.59;5008074;28;20403;-83
2022/05/24 00:48:18;;;;;;;28.45;14.00;;;;;;;12.27;99.76;99942.28;4968916;28;20053;-83
2022/05/24 00:50:48;;;;;;;23.83;14.27;;;;;;;12.19;100.00;99942.81;5007153;28;20033;-83
2022/05/24 00:53:24;;;;;;;22.15;14.73;;;;;;;12.20;99.95;99943.66;5006633;28;20057;-83
2022/05/24 00:55:56;;;;;;;26.00;15.23;;;;;;;12.24;100.00;99953.16;5008676;28;20038;-83
2022/05/24 00:58:45;;;;;;;22.08;14.20;;;;;;;12.28;99.66;99946.63;5007925;28;20026;-83
2022/05/24 01:01:33;;;;;;;19.83;13.85;;;;;;;12.21;100.00;99945.41;5007143;28;20089;-83
2022/05/24 01:03:59;;;;;;;20.52;12.82;;;;;;;12.14;99.35;99941.44;4992392;28;20045;-83
2022/05/24 01:06:25;;;;;;;18.25;12.50;;;;;;;12.09;99.25;99948.94;5008907;28;20365;-82
2022/05/24 01:08:52;;;;;;;20.42;12.15;;;;;;;12.02;99.41;99950.31;5009333;28;20062;-83
2022/05/24 01:11:19;;;;;;;16.60;11.38;;;;;;;11.94;99.70;99940.19;5008416;28;20026;-83
2022/05/24 01:13:45;;;;;;;19.00;11.07;;;;;;;11.92;99.65;99936.81;5006313;28;20102;-83
2022/05/24 01:16:12;;;;;;;19.42;11.27;;;;;;;11.86;99.74;99940.72;5008653;28;20057;-83
2022/05/24 01:18:38;;;;;;;17.23;10.05;;;;;;;11.84;98.23;99942.66;5006057;28;20104;-83
2022/05/24 01:21:09;;;;;;;14.73;9.20;;;;;;;11.83;97.88;99932.97;5007194;28;20715;-83
2022/05/24 01:24:13;;;;;;;17.77;9.40;;;;;;;11.80;98.63;99934.97;5006211;28;20038;-83
2022/05/24 01:26:52;;;;;;;14.13;8.90;;;;;;;11.77;98.76;99930.69;5004696;28;20030;-83
2022/05/24 01:29:20;;;;;;;19.05;8.38;;;;;;;11.72;98.35;99946.16;5006403;28;20692;-84
2022/05/24 01:37:16;;;;;;;12.63;7.90;;;;;;;11.63;98.12;99955.66;5001013;28;20439;-83
2022/05/24 01:39:44;;;;;;;14.55;7.88;;;;;;;11.62;98.21;99945.06;5000549;28;20133;-83
2022/05/24 01:42:10;;;;;;;16.13;8.27;;;;;;;11.60;98.52;99941.69;5002054;28;20488;-83
2022/05/24 01:44:54;;;;;;;11.57;7.07;;;;;;;11.59;98.29;99945.31;5005698;28;20037;-83
2022/05/24 01:47:21;;;;;;;;;;;;;;;11.58;98.70;99939.13;5009302;28;20038;-82
2022/05/24 01:49:50;;;;;;;12.00;6.53;;;;;;;11.51;97.29;99940.50;5007012;28;20025;-83
2022/05/24 01:52:38;;;;;;;15.10;6.78;;;;;;;11.52;97.49;99944.88;5006069;28;20076;-83
2022/05/24 01:55:11;;;;;;;14.30;6.85;;;;;;;11.44;97.30;99937.41;5007296;28;20283;-83
2022/05/24 01:57:43;;;;;;;15.07;6.40;;;;;;;11.39;97.82;99926.22;5004848;28;20585;-83
2022/05/24 02:00:12;;;;;;;9.25;6.13;;;;;;;11.41;97.29;99942.09;5007020;28;20065;-83
2022/05/24 02:02:37;;;;;;;12.13;6.13;;;;;;;11.34;96.88;99932.81;5004496;28;20049;-83
2022/05/24 02:05:04;;;;;;;11.35;5.68;;;;;;;11.31;97.42;99931.22;5008616;28;20072;-83
2022/05/24 02:07:29;;;;;;;9.77;5.60;;;;;;;11.36;95.76;99939.75;5007454;28;20041;-83
2022/05/24 02:09:57;;;;;;;9.48;5.65;;;;;;;11.34;95.72;99955.00;5006636;28;20021;-83
2022/05/24 02:12:35;;;;;;;10.10;5.43;;;;;;;11.31;96.33;99955.19;5006985;28;20022;-83
2022/05/24 02:15:17;;;;;;;10.63;5.70;;;;;;;11.22;96.50;99948.69;5005581;28;20029;-83
2022/05/24 02:17:59;;;;;;;9.50;6.00;;;;;;;11.17;96.86;99936.66;5012719;28;20026;-83
2022/05/24 02:20:33;;;;;;;13.10;6.38;;;;;;;11.13;96.96;99938.66;5002294;28;20500;-83
2022/05/24 02:22:59;;;;;;;12.82;6.38;;;;;;;11.15;97.47;99955.38;5006900;28;20438;-83
2022/05/24 02:25:30;;;;;;;12.60;6.57;;;;;;;11.13;97.62;99951.13;5007071;28;20045;-83
2022/05/24 02:27:56;;;;;;;13.18;7.15;;;;;;;11.11;97.94;99958.34;5006192;28;20724;-82
2022/05/24 02:30:24;;;;;;;10.95;7.00;;;;;;;11.08;97.78;99959.41;5004673;28;20041;-83
2022/05/24 02:32:50;;;;;;;12.65;6.85;;;;;;;11.10;97.97;99960.16;5004688;28;20032;-83
2022/05/24 02:35:16;;;;;;;12.57;7.25;;;;;;;11.10;97.96;99946.00;4995225;28;20026;-83
2022/05/24 02:37:42;;;;;;;15.27;7.13;;;;;;;11.13;97.56;99951.97;5007265;28;20030;-83
2022/05/24 02:42:52;;;;;;;15.77;7.00;;;;;;;11.17;97.63;99933.97;4996673;28;20118;-83
2022/05/24 02:45:18;;;;;;;13.50;6.65;;;;;;;11.25;96.90;99944.97;5003086;28;20026;-83
2022/05/24 02:47:43;;;;;;;9.98;5.85;;;;;;;11.27;96.59;99944.84;5003443;28;20044;-83
2022/05/24 02:50:11;;;;;;;15.68;6.70;;;;;;;11.27;96.83;99942.19;5002450;28;20492;-83
2022/05/24 02:52:37;;;;;;;12.75;6.47;;;;;;;11.27;96.49;99940.38;5005138;28;20104;-83
2022/05/24 02:55:05;;;;;;;12.48;6.07;;;;;;;11.32;96.44;99935.56;5007025;28;20052;-82
2022/05/24 02:57:30;;;;;;;11.38;5.20;;;;;;;11.37;95.70;99925.47;5004146;28;20072;-82
2022/05/24 02:59:56;;;;;;;10.95;5.40;;;;;;;11.37;95.25;99930.81;5002101;28;20057;-82
2022/05/24 03:02:21;;;;;;;9.95;4.82;;;;;;;11.35;95.02;99922.06;4997670;28;20026;-82
2022/05/24 03:04:46;;;;;;;9.63;4.55;;;;;;;11.38;94.92;99934.31;4997736;28;20482;-83
2022/05/24 03:09:55;;;;;;;11.30;4.57;;;;;;;11.33;94.64;99950.63;4996752;28;21432;-82
2022/05/24 03:15:07;;;;;;;9.40;4.55;;;;;;;11.29;94.13;99959.78;4987335;28;20104;-82
2022/05/24 03:17:32;;;;;;;8.30;4.07;;;;;;;11.27;94.37;99953.69;4999579;28;20054;-83
2022/05/24 03:19:58;;;;;;;11.68;4.43;;;;;;;11.26;94.45;99949.34;4996955;28;20439;-82
2022/05/24 03:22:23;;;;;;;9.98;3.67;;;;;;;11.28;93.68;99965.19;4999008;28;20057;-82
2022/05/24 03:24:48;;;;;;;10.35;4.45;;;;;;;11.27;93.31;99958.16;4998476;28;20022;-82
2022/05/24 03:27:14;;;;;;;10.13;4.10;;;;;;;11.27;93.57;99960.84;4999115;28;20165;-83
2022/05/24 03:29:41;;;;;;;7.97;3.63;;;;;;;11.24;93.75;99959.22;4999379;28;20077;-83
2022/05/24 03:32:08;;;;;;;9.98;4.10;;;;;;;11.23;93.61;99952.19;4997959;28;20077;-82
2022/05/24 03:34:34;;;;;;;9.48;3.90;;;;;;;11.21;93.27;99954.13;5006432;28;20117;-83
2022/05/24 03:37:00;;;;;;;11.70;4.45;;;;;;;11.17;93.77;99964.13;5009755;28;20033;-82
2022/05/24 03:39:25;;;;;;;8.77;3.47;;;;;;;11.18;93.32;99956.97;5010103;28;20372;-82
2022/05/24 03:41:50;;;;;;;8.20;3.90;;;;;;;11.18;93.85;99959.66;5008956;28;20228;-83
2022/05/24 03:44:15;;;;;;;7.32;3.90;;;;;;;11.14;92.77;99942.16;5010850;28;20511;-82
2022/05/24 03:46:41;;;;;;;11.07;4.00;;;;;;;11.19;93.14;99967.53;5009682;28;20045;-83
2022/05/24 03:49:06;;;;;;;8.95;3.83;;;;;;;11.20;93.86;99969.25;5010008;28;20040;-82
2022/05/24 03:51:32;;;;;;;9.52;3.65;;;;;;;11.21;93.37;99975.44;5008435;28;20029;-83
2022/05/24 03:53:57;;;;;;;8.35;4.03;;;;;;;11.25;93.19;99992.06;5005525;28;20063;-82
2022/05/24 03:56:24;;;;;;;9.95;4.07;;;;;;;11.27;93.51;99990.97;5008864;28;20056;-82
2022/05/24 03:58:49;;;;;;;10.30;3.75;;;;;;;11.26;92.85;99989.28;5005953;28;20026;-82
2022/05/24 04:01:15;;;;;;;13.35;3.78;;;;;;;11.25;92.84;100000.06;5008511;28;20532;-83
2022/05/24 04:03:40;;;;;;;8.90;3.58;;;;;;;11.21;92.88;100010.06;5009474;28;20483;-83
2022/05/24 04:06:05;;;;;;;11.38;4.10;;;;;;;11.26;93.08;100025.72;5000430;28;20116;-82
2022/05/24 04:08:31;;;;;;;9.43;3.53;;;;;;;11.27;92.77;100025.63;5009506;28;20030;-83
2022/05/24 04:11:04;;;;;;;7.93;3.25;;;;;;;11.23;93.23;100026.78;5008658;28;20042;-83
2022/05/24 04:13:30;;;;;;;8.13;3.83;;;;;;;11.29;92.74;100029.06;5006771;28;20120;-82
2022/05/24 04:15:55;;;;;;;8.10;3.33;;;;;;;11.28;92.74;100023.81;5003381;28;20389;-83
2022/05/24 04:18:21;;;;;;;9.07;3.88;;;;;;;11.27;92.45;100024.75;5010450;28;20030;-83
2022/05/24 04:20:46;;;;;;;11.32;3.90;;;;;;;11.24;93.41;100001.84;5005666;28;20107;-83
2022/05/24 04:23:13;;;;;;;10.68;4.00;;;;;;;11.23;92.85;99978.81;5010141;28;20032;-83
2022/05/24 04:25:38;;;;;;;11.43;3.42;;;;;;;11.22;92.33;99971.81;5006826;28;20148;-83
2022/05/24 04:28:04;;;;;;;11.23;3.60;;;;;;;11.22;92.99;99993.13;5008010;28;20061;-83
2022/05/24 04:30:30;;;;;;;14.32;4.93;;;;;;;11.20;92.39;100000.34;5007048;28;20502;-82
2022/05/24 04:32:56;;;;;;;8.90;3.83;;;;;;;11.25;92.54;100032.88;5008027;28;20045;-83
2022/05/24 04:35:21;;;;;;;7.47;3.47;;;;;;;11.24;92.02;100036.47;5006967;28;20018;-82
2022/05/24 04:37:46;;;;;;;11.95;3.00;;;;;;;11.22;92.23;100041.06;5009028;28;20026;-82
2022/05/24 04:40:12;;;;;;;8.00;3.38;;;;;;;11.20;92.16;100051.81;5007792;28;20443;-82
2022/05/24 04:42:38;;;;;;;9.10;2.97;;;;;;;11.11;92.22;100027.59;5006598;28;20088;-83
2022/05/24 04:45:13;;;;;;;12.85;3.72;;;;;;;11.19;91.98;100026.13;5006996;28;20463;-82
2022/05/24 04:47:38;;;;;;;12.25;3.78;;;;;;;11.16;92.65;100014.81;5006416;28;20046;-82
2022/05/24 04:50:07;;;;;;;7.10;3.20;;;;;;;11.17;92.47;100028.03;5006329;28;20554;-83
2022/05/24 04:52:35;;;;;;;10.05;3.58;;;;;;;11.16;92.25;100033.47;5006258;28;20034;-82
2022/05/24 04:55:04;;;;;;;9.40;3.42;;;;;;;11.17;91.97;100032.53;5004855;28;20065;-83
2022/05/24 04:57:29;;;;;;;12.90;3.40;;;;;;;11.13;92.20;100039.00;5006457;28;20034;-83
2022/05/24 04:59:54;;;;;;;8.85;3.38;;;;;;;11.18;91.93;100044.88;5006833;28;20026;-83
2022/05/24 05:02:20;;;;;;;11.18;3.30;;;;;;;11.21;91.53;100064.19;5008966;28;20383;-83
2022/05/24 05:04:46;;;;;;;7.15;3.17;;;;;;;11.21;91.61;100068.66;5006434;28;20109;-83
2022/05/24 05:07:11;;;;;;;7.20;2.83;;;;;;;11.30;91.18;100085.84;5007981;28;20124;-83
2022/05/24 05:09:38;;;;;;;9.63;3.28;;;;;;;11.33;90.64;100086.50;5006547;28;20026;-82
2022/05/24 05:12:05;;;;;;;9.05;3.05;;;;;;;11.33;91.50;100081.16;5006225;28;20450;-83
2022/05/24 05:14:31;;;;;;;9.75;3.47;;;;;;;11.37;91.15;100100.44;5006076;28;20041;-83
2022/05/24 05:16:57;;;;;;;7.32;3.03;;;;;;;11.38;90.01;100095.03;5008548;28;20038;-82
2022/05/24 05:19:23;;;;;;;8.23;2.92;;;;;;;11.41;90.00;100096.63;5006174;28;20041;-82
2022/05/24 05:21:48;;;;;;;7.53;3.20;;;;;;;11.42;89.39;100095.69;4993899;28;20039;-81
2022/05/24 05:24:13;;;;;;;10.52;2.85;;;;;;;11.32;89.42;100090.09;5004052;28;20030;-82
2022/05/24 05:26:39;;;;;;;8.10;3.40;;;;;;;11.37;89.36;100088.00;5004575;28;20530;-82
2022/05/24 05:29:04;;;;;;;6.85;3.10;;;;;;;11.39;89.91;100096.75;5005404;28;20042;-83
2022/05/24 05:31:29;;;;;;;7.35;3.38;;;;;;;11.39;89.80;100106.53;5006968;28;20033;-82
2022/05/24 05:33:59;;;;;;;7.60;3.05;;;;;;;11.24;88.61;100068.44;5008218;28;20029;-83
2022/05/24 05:36:30;;;;;;;6.35;3.08;;;;;;;11.35;89.43;100081.06;5004956;28;20057;-83
2022/05/24 05:38:56;;;;;;;6.93;3.55;;;;;;;11.36;89.22;100066.78;5008729;28;20533;-83
2022/05/24 05:41:24;;;;;;;7.53;3.17;;;;;;;11.39;89.10;100070.09;5005620;28;20427;-83
2022/05/24 05:43:50;;;;;;;10.20;3.30;;;;;;;11.44;88.57;100069.78;5005539;28;20890;-82
2022/05/24 05:46:17;;;;;;;12.02;3.40;;;;;;;11.44;89.02;100085.78;5004728;28;20033;-82
2022/05/24 05:48:42;;;;;;;10.13;3.30;;;;;;;11.38;88.78;100089.72;5007908;28;20117;-82
2022/05/24 05:51:09;;;;;;;9.00;2.90;;;;;;;11.39;88.61;100110.06;5004361;28;20187;-82
2022/05/24 05:53:36;;;;;;;9.48;3.22;;;;;;;11.37;88.29;100112.00;5005548;28;20122;-82
2022/05/24 05:56:01;;;;;;;8.73;3.20;;;;;;;11.35;88.55;100113.88;5011150;28;20176;-81
2022/05/24 05:58:27;;;;;;;6.70;3.00;;;;;;;11.32;88.82;100122.06;5010920;28;20022;-83
2022/05/24 06:00:52;;;;;;;12.73;3.80;;;;;;;11.32;88.39;100123.88;5001054;28;20044;-83
2022/05/24 06:03:18;;;;;;;6.97;3.17;;;;;;;11.25;88.80;100119.94;5004195;28;20033;-82
2022/05/24 06:05:46;;;;;;;8.00;2.97;;;;;;;11.25;89.50;100133.25;5002968;28;20123;-84
2022/05/24 06:08:12;;;;;;;10.20;3.38;;;;;;;11.22;88.15;100126.28;5005652;28;20343;-82
2022/05/24 06:10:37;;;;;;;6.68;3.13;;;;;;;11.18;88.90;100122.97;5003621;28;20117;-83
2022/05/24 06:13:04;;;;;;;9.18;3.20;;;;;;;11.26;89.04;100132.28;5009560;28;20041;-83
2022/05/24 06:15:31;;;;;;;11.25;3.75;;;;;;;11.34;88.80;100128.16;5007331;28;20030;-82
2022/05/24 06:17:57;;;;;;;6.78;2.92;;;;;;;11.40;88.00;100114.44;5006804;28;20483;-82
2022/05/24 06:20:25;;;;;;;6.93;2.78;;;;;;;11.59;87.14;100131.88;5003762;28;20029;-82
2022/05/24 06:22:52;;;;;;;9.88;3.40;;;;;;;11.67;86.68;100129.56;5005965;28;20034;-83
2022/05/24 06:25:19;;;;;;;10.85;2.40;;;;;;;11.86;85.96;100121.19;5005068;28;20480;-82
2022/05/24 06:27:44;;;;;;;6.05;2.50;;;;;;;12.18;85.52;100130.53;5005274;28;20488;-83
2022/05/24 06:30:10;;;;;;;10.77;2.80;;;;;;;12.53;83.51;100127.22;5005319;28;20065;-83
2022/05/24 06:32:35;;;;;;;7.95;2.90;;;;;;;12.87;81.17;100130.16;5007533;28;20041;-83
2022/05/24 06:35:00;;;;;;;5.80;2.50;;;;;;;13.16;81.23;100136.06;5002911;28;20141;-83
2022/05/24 06:37:26;;;;;;;7.00;2.88;;;;;;;13.34;78.62;100139.28;5001999;28;20022;-83
2022/05/24 06:39:51;;;;;;;5.80;2.85;;;;;;;13.49;79.01;100154.16;5001242;28;20022;-83
2022/05/24 06:42:17;;;;;;;9.35;2.90;;;;;;;13.58;77.57;100158.81;4997024;28;20200;-83
2022/05/24 06:44:43;;;;;;;5.80;2.38;;;;;;;13.72;76.11;100156.97;5014701;28;20018;-83
2022/05/24 06:47:08;;;;;;;9.25;2.28;;;;;;;13.81;76.91;100157.13;4995672;28;20033;-83
2022/05/24 06:49:36;;;;;;;8.20;2.50;;;;;;;14.03;76.79;100164.38;5002960;28;20034;-83
2022/05/24 06:52:02;;;;;;;5.95;2.08;;;;;;;14.10;75.13;100170.97;5004321;28;20030;-82
2022/05/24 06:54:27;;;;;;;8.88;2.05;;;;;;;14.11;71.96;100171.81;5011742;28;20033;-83
2022/05/24 06:56:53;;;;;;;4.07;1.92;;;;;;;14.11;72.87;100166.47;5013699;28;20022;-82
2022/05/24 07:04:46;;;;;;;6.25;1.77;;;;;;;14.64;71.69;100178.41;5004263;28;20048;-83
2022/05/24 07:07:11;;;;;;;7.25;2.00;;;;;;;14.74;70.61;100185.72;5004795;28;20108;-83
2022/05/24 07:09:40;;;;;;;8.18;2.08;;;;;;;14.70;69.81;100207.38;5005023;28;20251;-83
2022/05/24 07:12:06;;;;;;;5.22;1.92;;;;;;;14.69;70.43;100205.69;5008414;28;20088;-83
2022/05/24 07:14:33;;;;;;;4.88;2.10;;;;;;;14.75;70.38;100196.31;5004149;28;20046;-83
2022/05/24 07:16:59;;;;;;;6.28;2.00;;;;;;;14.85;68.78;100186.59;5003688;28;20036;-83
2022/05/24 07:19:25;;;;;;;5.53;2.10;;;;;;;15.05;67.02;100206.44;5004702;28;20113;-83
2022/05/24 07:21:50;;;;;;;8.35;2.45;;;;;;;15.17;67.85;100207.28;5006967;28;20117;-83
2022/05/24 07:24:16;;;;;;;5.05;1.88;;;;;;;15.37;66.95;100213.72;5006654;28;20390;-84
2022/05/24 07:26:42;;;;;;;6.72;2.10;;;;;;;15.23;66.81;100214.00;5006251;28;20026;-84
2022/05/24 07:29:08;;;;;;;3.67;2.00;;;;;;;15.18;66.04;100219.72;5005516;28;20054;-83
2022/05/24 07:31:33;;;;;;;6.65;2.53;;;;;;;15.10;66.09;100219.47;5004228;28;20455;-83
2022/05/24 07:34:01;;;;;;;7.40;2.60;;;;;;;15.05;66.12;100217.16;5005314;28;20032;-84
2022/05/24 07:36:27;;;;;;;5.57;2.03;;;;;;;15.26;65.46;100205.69;5006397;28;20120;-83
2022/05/24 07:38:52;;;;;;;7.38;2.10;;;;;;;15.70;63.98;100226.25;5004116;28;20129;-83
2022/05/24 07:46:46;;;;;;;;;;;;;;;15.82;65.30;100235.97;5001750;28;20557;-83
2022/05/24 07:49:11;;;;;;;9.10;2.20;;;;;;;15.07;64.43;100214.34;5000389;28;19972;-82
2022/05/24 07:51:36;;;;;;;8.45;3.50;;;;;;;14.74;64.82;100223.22;5002347;28;20307;-84
2022/05/24 07:54:02;;;;;;;5.63;2.45;;;;;;;14.58;65.71;100234.25;5006401;28;20464;-82
2022/05/24 07:56:27;;;;;;;7.20;2.20;;;;;;;14.51;66.62;100235.72;5002889;28;20049;-82
2022/05/24 07:58:54;;;;;;;4.18;2.00;;;;;;;14.41;66.12;100236.38;5005892;28;20061;-82
2022/05/24 08:01:19;;;;;;;7.05;2.35;;;;;;;14.29;65.47;100236.47;5000528;28;20037;-83
2022/05/24 08:03:44;;;;;;;6.25;2.45;;;;;;;14.14;67.08;100241.16;5002763;28;20034;-84
2022/05/24 08:06:10;;;;;;;6.57;2.58;;;;;;;14.09;67.46;100238.00;5004621;28;20018;-82
2022/05/24 08:08:36;;;;;;;3.67;2.20;;;;;;;14.11;66.86;100239.56;5004965;28;20407;-87
2022/05/24 08:11:01;;;;;;;4.97;2.10;;;;;;;15.64;64.52;100246.38;5003860;28;20062;-83
2022/05/24 08:13:27;;;;;;;3.72;1.90;;;;;;;16.76;59.52;100242.41;5006200;28;20190;-84
2022/05/24 08:15:54;;;;;;;3.33;1.80;;;;;;;17.41;57.11;100245.66;5005312;28;20502;-84
2022/05/24 08:18:21;;;;;;;4.85;1.60;;;;;;;17.73;55.10;100245.50;5001673;28;20022;-84
2022/05/24 08:20:47;;;;;;;13.52;1.90;;;;;;;17.59;54.86;100254.78;5004983;28;20084;-82
2022/05/24 08:23:12;;;;;;;3.17;1.95;;;;;;;16.92;56.49;100252.66;5007007;28;20383;-82
2022/05/24 08:25:38;;;;;;;5.68;2.35;;;;;;;16.50;58.72;100273.28;5019479;28;20053;-82
2022/05/24 08:28:07;;;;;;;4.57;1.60;;;;;;;15.99;58.55;100268.63;5007044;28;20121;-81
2022/05/24 08:30:34;;;;;;;4.38;1.73;;;;;;;15.57;61.09;100266.59;5008284;28;20137;-82
2022/05/24 08:32:59;;;;;;;4.15;1.98;;;;;;;15.40;61.62;100275.16;5001494;28;20026;-82
2022/05/24 08:35:25;;;;;;;7.05;2.08;;;;;;;15.27;63.15;100280.66;5006442;28;20033;-81
2022/05/24 08:37:51;;;;;;;7.10;2.28;;;;;;;15.25;63.97;100297.81;5006404;28;20029;-82
2022/05/24 08:40:19;;;;;;;3.45;1.70;;;;;;;15.44;60.73;100293.56;5008148;28;20022;-81
2022/05/24 08:42:59;;;;;;;3.42;1.42;;;;;;;15.64;60.72;100288.44;5002719;28;20037;-81
2022/05/24 08:48:37;;;;;;;3.90;1.20;;;;;;;16.26;59.51;100301.25;5008254;28;20045;-81
2022/05/24 08:51:10;;;;;;;3.05;1.10;;;;;;;16.56;57.46;100310.41;5005840;28;20036;-82
2022/05/24 08:53:43;;;;;;;3.10;1.60;;;;;;;16.81;56.45;100310.06;5007461;28;20030;-82
2022/05/24 08:56:12;;;;;;;3.58;1.20;;;;;;;16.63;55.60;100308.88;5003031;28;20026;-82
2022/05/24 08:58:43;;;;;;;3.42;1.48;;;;;;;16.38;57.51;100313.63;5006020;28;20479;-83
2022/05/24 09:01:17;;;;;;;3.13;1.30;;;;;;;16.15;58.13;100312.00;5003952;28;20561;-81
2022/05/24 09:03:42;;;;;;;3.22;1.20;;;;;;;15.84;56.04;100302.91;5000681;28;20431;-83
2022/05/24 09:06:35;;;;;;;3.85;1.40;;;;;;;15.81;58.47;100317.47;5010507;28;20026;-81
2022/05/24 09:09:31;;;;;;;3.95;1.20;;;;;;;15.67;56.61;100310.53;4997575;28;20108;-82
2022/05/24 09:12:28;;;;;;;3.38;1.27;;;;;;;15.85;57.82;100324.28;5005327;28;20155;-82
2022/05/24 09:15:21;;;;;;;4.28;1.48;;;;;;;15.94;56.93;100339.63;5002893;28;20026;-81
2022/05/24 09:17:59;;;;;;;2.75;1.10;;;;;;;15.93;57.14;100343.31;5008139;28;20479;-83
2022/05/24 09:20:24;;;;;;;2.95;1.10;;;;;;;16.02;56.80;100344.38;5008004;28;20049;-82
2022/05/24 09:22:53;;;;;;;4.00;1.40;;;;;;;15.75;56.38;100342.09;5000358;28;20273;-82
2022/05/24 09:25:18;;;;;;;2.40;1.30;;;;;;;15.41;57.35;100344.75;5005633;28;20340;-83
2022/05/24 09:27:51;;;;;;;4.32;2.08;;;;;;;15.20;59.17;100336.56;5004429;28;20049;-83
2022/05/24 09:30:28;;;;;;;4.90;2.30;;;;;;;15.51;59.07;100349.38;5007873;28;20050;-83
2022/05/24 09:33:24;;;;;;;3.22;1.50;;;;;;;15.89;59.05;100357.94;5006268;28;20036;-83
2022/05/24 09:35:55;;;;;;;3.05;1.40;;;;;;;17.26;54.10;100371.59;5003881;28;20463;-85
2022/05/24 09:38:22;;;;;;;5.57;1.90;;;;;;;17.98;51.57;100351.00;5005462;28;20476;-85
2022/05/24 09:40:55;;;;;;;2.63;1.65;;;;;;;17.53;52.42;100364.81;5006190;28;20097;-85
2022/05/24 09:43:30;;;;;;;4.10;2.22;;;;;;;16.99;53.35;100379.34;5009858;28;20038;-86
2022/05/24 09:46:01;;;;;;;2.47;2.28;;;;;;;16.67;53.28;100364.06;5007975;28;20438;-87
2022/05/24 09:48:29;;;;;;;28.65;3.28;;;;;;;16.89;52.95;100382.81;5006931;28;20026;-81
2022/05/24 09:50:56;;;;;;;5.10;2.80;;;;;;;16.91;52.67;100380.84;5005855;28;20057;-84
2022/05/24 09:53:28;;;;;;;3.75;2.30;;;;;;;16.92;53.40;100374.47;5007384;28;20080;-83
2022/05/24 09:56:04;;;;;;;5.10;2.15;;;;;;;17.28;52.83;100377.69;5006628;28;20030;-83
2022/05/24 09:58:36;;;;;;;3.78;1.70;;;;;;;17.31;52.54;100374.75;5001334;28;20037;-82
2022/05/24 10:01:07;;;;;;;4.60;1.50;;;;;;;17.60;51.32;100366.84;5006267;28;20032;-82
2022/05/24 10:03:39;;;;;;;4.20;1.70;;;;;;;18.21;50.90;100374.00;5008537;28;20028;-84
2022/05/24 10:06:30;;;;;;;2.80;1.73;;;;;;;18.30;50.77;100375.00;5002135;28;20037;-84
2022/05/24 10:09:03;;;;;;;2.13;1.92;;;;;;;19.90;46.92;100381.53;5008443;28;20476;-85
2022/05/24 10:11:34;;;;;;;3.08;2.38;;;;;;;22.18;41.28;100376.31;5004870;28;20153;-84
2022/05/24 10:14:02;;;;;;;3.25;2.13;;;;;;;23.52;39.55;100390.50;5004285;28;20054;-86
2022/05/24 10:16:49;;;;;;;2.00;1.70;;;;;;;24.83;36.85;100393.53;5005608;28;20033;-85
2022/05/24 10:19:32;;;;;;;2.17;1.52;;;;;;;25.80;35.62;100374.63;5004575;28;20108;-86
2022/05/24 10:22:15;;;;;;;2.47;1.90;;;;;;;26.63;33.03;100383.44;5001988;28;20040;-85
2022/05/24 10:24:45;;;;;;;2.95;1.55;;;;;;;27.64;29.97;100378.63;4989458;28;20033;-84
2022/05/24 10:27:25;;;;;;;4.70;1.67;;;;;;;27.40;31.46;100382.66;5006259;28;20025;-84
2022/05/24 10:30:07;;;;;;;3.75;1.73;;;;;;;27.23;30.83;100390.31;5002316;28;20136;-84
2022/05/24 10:38:49;;;;;;;2.75;2.20;;;;;;;28.26;27.69;100394.13;5003277;28;20124;-86
2022/05/24 10:41:44;;;;;;;4.50;1.90;;;;;;;28.90;29.58;100389.28;5002958;28;20033;-86
2022/05/24 10:44:24;;;;;;;4.25;2.40;;;;;;;29.37;28.73;100391.00;5004002;28;20041;-87
2022/05/24 10:46:58;;;;;;;3.45;2.60;;;;;;;29.24;27.25;100394.59;5007970;28;20160;-87
2022/05/24 10:49:36;;;;;;;3.40;3.10;;;;;;;26.70;29.98;100405.31;5008590;28;20041;-87
2022/05/24 10:52:12;;;;;;;4.53;3.05;;;;;;;24.30;33.96;100400.63;5007087;28;20034;-88
2022/05/24 10:54:48;;;;;;;3.83;3.53;;;;;;;22.45;37.94;100412.31;5005306;28;20451;-87
2022/05/24 10:57:31;;;;;;;4.47;3.42;;;;;;;21.26;40.81;100401.34;4994183;28;20030;-87
2022/05/24 11:00:17;;;;;;;4.82;3.22;;;;;;;22.35;39.57;100401.63;4988531;28;20369;-86
2022/05/24 11:02:50;;;;;;;3.55;3.25;;;;;;;24.64;34.14;100404.88;4989813;28;20034;-87
2022/05/24 11:05:21;;;;;;;3.97;3.00;;;;;;;27.07;31.29;100409.69;4988944;28;20117;-87
2022/05/24 11:07:54;;;;;;;2.10;1.98;;;;;;;28.49;27.43;100406.66;4988398;28;20022;-87
2022/05/24 11:10:30;;;;;;;1.75;1.50;;;;;;;30.12;24.84;100416.19;4996470;28;20037;-87
2022/05/24 11:13:03;;;;;;;1.77;1.50;;;;;;;29.56;25.87;100386.59;5006019;28;20026;-87
2022/05/24 11:15:39;;;;;;;2.85;2.40;;;;;;;26.78;28.41;100405.19;5008505;28;20036;-87
2022/05/24 11:18:17;;;;;;;2.42;1.90;;;;;;;24.10;31.98;100412.97;5007131;28;20450;-87
2022/05/24 11:20:54;;;;;;;2.30;1.63;;;;;;;21.93;35.23;100418.72;5007651;28;20029;-87
2022/05/24 11:23:28;;;;;;;2.10;1.90;;;;;;;21.90;37.27;100421.72;5006531;28;20423;-87
2022/05/24 11:26:08;;;;;;;1.80;1.52;;;;;;;24.51;33.46;100419.09;5005388;28;20116;-87
2022/05/24 11:28:40;;;;;;;2.72;1.60;;;;;;;26.92;29.77;100422.56;5008036;28;20104;-87
2022/05/24 11:31:41;;;;;;;6.85;5.07;;;;;;;28.92;29.44;100409.06;5007402;28;20507;-88
2022/05/24 11:34:18;;;;;;;2.75;1.25;;;;;;;29.57;25.15;100420.34;5005969;28;20548;-88
2022/05/24 11:36:48;;;;;;;1.90;1.50;;;;;;;30.22;23.99;100422.13;5007876;28;20030;-87
2022/05/24 11:39:22;;;;;;;2.15;1.30;;;;;;;29.11;26.19;100407.44;5007737;28;20072;-88
2022/05/24 11:41:48;;;;;;;3.35;1.45;;;;;;;27.19;27.62;100421.81;5006505;28;20038;-88
2022/05/24 11:44:34;;;;;;;3.72;1.27;;;;;;;24.73;30.92;100436.47;5006994;28;20036;-87
2022/05/24 11:47:00;;;;;;;2.90;1.30;;;;;;;22.71;33.61;100437.50;5006824;28;20557;-86
2022/05/24 11:49:27;;;;;;;2.53;0.90;;;;;;;21.35;35.01;100441.03;5008111;28;20029;-87
2022/05/24 11:51:54;;;;;;;1.45;1.10;;;;;;;20.44;37.77;100449.22;5007598;28;20467;-87
2022/05/24 11:54:23;;;;;;;1.50;0.90;;;;;;;19.91;39.06;100444.50;5008096;28;20034;-87
2022/05/24 11:57:01;;;;;;;1.50;0.80;;;;;;;19.49;39.13;100444.03;5011397;28;20030;-87
2022/05/24 11:59:41;;;;;;;3.13;0.80;;;;;;;19.37;40.62;100454.97;5010682;28;20069;-88
2022/05/24 12:02:32;;;;;;;1.25;0.60;;;;;;;19.98;39.40;100463.66;5010880;28;20033;-86
2022/05/24 12:08:22;;;;;;;4.75;1.08;;;;;;;20.80;39.09;100462.81;5007375;28;20104;-86
2022/05/24 12:10:51;;;;;;;1.25;0.70;;;;;;;20.47;37.88;100477.78;5007122;28;20107;-86
2022/05/24 12:13:27;;;;;;;1.23;0.80;;;;;;;19.50;40.01;100467.31;5007762;28;20045;-85